sensor_id;sensor_type;location;lat;lon;timestamp;pressure;altitude;pressure_sealevel;temperature;humidity
26087;BME280;13851;43.434;28.338;2023-05-11T00:01:48;100549.88;;;11.15;100.00
26087;BME280;13851;43.434;28.338;2023-05-11T00:04:14;100547.66;;;11.18;100.00
26087;BME280;13851;43.434;28.338;2023-05-11T00:06:41;100543.88;;;11.19;100.00
26087;BME280;13851;43.434;28.338;2023-05-11T00:09:07;100540.47;;;11.17;100.00
26087;BME280;13851;43.434;28.338;2023-05-11T00:11:34;100545.09;;;11.17;100.00
26087;BME280;13851;43.434;28.338;2023-05-11T00:14:00;100547.47;;;11.20;100.00
26087;BME280;13851;43.434;28.338;2023-05-11T00:16:25;100510.44;;;11.00;100.00
26087;BME280;13851;43.434;28.338;2023-05-11T00:18:51;100503.94;;;11.01;100.00
26087;BME280;13851;43.434;28.338;2023-05-11T00:21:16;100548.13;;;10.98;100.00
26087;BME280;13851;43.434;28.338;2023-05-11T00:23:42;100525.88;;;11.01;100.00
26087;BME280;13851;43.434;28.338;2023-05-11T00:26:09;100537.72;;;11.26;100.00
26087;BME280;13851;43.434;28.338;2023-05-11T00:28:35;100506.00;;;10.99;100.00
26087;BME280;13851;43.434;28.338;2023-05-11T00:31:01;100488.84;;;10.88;100.00
26087;BME280;13851;43.434;28.338;2023-05-11T00:33:26;100545.63;;;11.29;100.00
26087;BME280;13851;43.434;28.338;2023-05-11T00:35:52;100504.28;;;10.98;100.00
26087;BME280;13851;43.434;28.338;2023-05-11T00:38:18;100584.88;;;11.21;100.00
26087;BME280;13851;43.434;28.338;2023-05-11T00:40:44;100553.16;;;11.27;100.00
26087;BME280;13851;43.434;28.338;2023-05-11T00:43:09;100500.84;;;10.96;100.00
26087;BME280;13851;43.434;28.338;2023-05-11T00:45:35;100530.00;;;11.13;100.00
26087;BME280;13851;43.434;28.338;2023-05-11T00:48:01;100221.47;;;9.29;100.00
26087;BME280;13851;43.434;28.338;2023-05-11T00:50:26;100562.44;;;11.34;100.00
26087;BME280;13851;43.434;28.338;2023-05-11T00:52:53;100508.03;;;10.80;100.00
26087;BME280;13851;43.434;28.338;2023-05-11T00:55:20;100370.25;;;10.37;100.00
26087;BME280;13851;43.434;28.338;2023-05-11T00:57:48;100548.88;;;11.40;100.00
26087;BME280;13851;43.434;28.338;2023-05-11T01:00:19;100453.19;;;10.88;100.00
26087;BME280;13851;43.434;28.338;2023-05-11T01:02:44;100555.72;;;11.28;100.00
26087;BME280;13851;43.434;28.338;2023-05-11T01:05:10;100490.56;;;11.14;100.00
26087;BME280;13851;43.434;28.338;2023-05-11T01:07:42;100475.16;;;11.13;100.00
26087;BME280;13851;43.434;28.338;2023-05-11T01:10:14;100542.72;;;11.55;100.00
26087;BME280;13851;43.434;28.338;2023-05-11T01:15:53;100493.69;;;11.27;100.00
26087;BME280;13851;43.434;28.338;2023-05-11T01:18:33;100548.53;;;11.60;100.00
26087;BME280;13851;43.434;28.338;2023-05-11T01:21:02;100541.53;;;11.57;100.00
26087;BME280;13851;43.434;28.338;2023-05-11T01:31:57;100497.13;;;11.21;100.00
26087;BME280;13851;43.434;28.338;2023-05-11T01:34:26;100551.31;;;11.52;100.00
26087;BME280;13851;43.434;28.338;2023-05-11T01:37:05;100435.38;;;10.60;100.00
26087;BME280;13851;43.434;28.338;2023-05-11T01:39:37;100561.38;;;11.35;100.00
26087;BME280;13851;43.434;28.338;2023-05-11T01:42:08;100203.25;;;9.46;100.00
26087;BME280;13851;43.434;28.338;2023-05-11T01:44:34;100474.84;;;11.16;100.00
26087;BME280;13851;43.434;28.338;2023-05-11T01:47:02;100519.56;;;11.25;100.00
26087;BME280;13851;43.434;28.338;2023-05-11T01:49:32;100203.19;;;9.30;100.00
26087;BME280;13851;43.434;28.338;2023-05-11T01:52:00;100532.59;;;11.47;100.00
26087;BME280;13851;43.434;28.338;2023-05-11T01:54:29;100216.09;;;9.62;100.00
26087;BME280;13851;43.434;28.338;2023-05-11T01:56:57;100531.03;;;11.44;100.00
26087;BME280;13851;43.434;28.338;2023-05-11T01:59:24;100405.03;;;10.70;100.00
26087;BME280;13851;43.434;28.338;2023-05-11T02:01:53;100528.63;;;11.25;100.00
26087;BME280;13851;43.434;28.338;2023-05-11T02:04:20;100552.81;;;11.46;100.00
26087;BME280;13851;43.434;28.338;2023-05-11T02:06:50;100532.41;;;11.40;100.00
26087;BME280;13851;43.434;28.338;2023-05-11T02:09:17;100174.66;;;9.24;100.00
26087;BME280;13851;43.434;28.338;2023-05-11T02:11:44;100518.66;;;11.00;100.00
26087;BME280;13851;43.434;28.338;2023-05-11T02:14:17;100545.94;;;11.26;100.00
26087;BME280;13851;43.434;28.338;2023-05-11T02:16:49;100218.34;;;9.58;100.00
26087;BME280;13851;43.434;28.338;2023-05-11T02:19:16;100549.22;;;11.37;100.00
26087;BME280;13851;43.434;28.338;2023-05-11T02:21:46;100506.38;;;11.28;100.00
26087;BME280;13851;43.434;28.338;2023-05-11T02:24:15;100544.22;;;11.25;100.00
26087;BME280;13851;43.434;28.338;2023-05-11T02:26:42;100540.66;;;11.49;100.00
26087;BME280;13851;43.434;28.338;2023-05-11T02:29:08;100516.13;;;11.31;100.00
26087;BME280;13851;43.434;28.338;2023-05-11T02:31:41;100289.75;;;10.06;100.00
26087;BME280;13851;43.434;28.338;2023-05-11T02:34:23;100476.19;;;11.20;100.00
26087;BME280;13851;43.434;28.338;2023-05-11T02:36:53;100457.00;;;10.96;100.00
26087;BME280;13851;43.434;28.338;2023-05-11T02:39:20;100534.16;;;11.58;100.00
26087;BME280;13851;43.434;28.338;2023-05-11T02:41:55;100517.00;;;11.23;100.00
26087;BME280;13851;43.434;28.338;2023-05-11T02:44:28;100530.88;;;11.30;100.00
26087;BME280;13851;43.434;28.338;2023-05-11T02:46:59;100460.78;;;11.11;100.00
26087;BME280;13851;43.434;28.338;2023-05-11T02:49:28;100532.78;;;11.54;100.00
26087;BME280;13851;43.434;28.338;2023-05-11T02:51:56;100536.69;;;11.51;100.00
26087;BME280;13851;43.434;28.338;2023-05-11T02:54:23;100545.81;;;11.52;100.00
26087;BME280;13851;43.434;28.338;2023-05-11T02:56:50;100533.78;;;11.44;100.00
26087;BME280;13851;43.434;28.338;2023-05-11T02:59:16;100556.78;;;11.43;100.00
26087;BME280;13851;43.434;28.338;2023-05-11T03:01:42;100219.84;;;9.61;100.00
26087;BME280;13851;43.434;28.338;2023-05-11T03:04:09;100502.59;;;11.29;100.00
26087;BME280;13851;43.434;28.338;2023-05-11T03:06:35;100530.38;;;11.42;100.00
26087;BME280;13851;43.434;28.338;2023-05-11T03:09:01;100480.13;;;11.09;100.00
26087;BME280;13851;43.434;28.338;2023-05-11T03:11:26;100354.00;;;10.36;100.00
26087;BME280;13851;43.434;28.338;2023-05-11T03:13:53;100567.59;;;11.53;100.00
26087;BME280;13851;43.434;28.338;2023-05-11T03:16:21;100552.16;;;11.52;100.00
26087;BME280;13851;43.434;28.338;2023-05-11T03:18:48;100297.06;;;9.97;100.00
26087;BME280;13851;43.434;28.338;2023-05-11T03:21:15;100539.78;;;11.40;100.00
26087;BME280;13851;43.434;28.338;2023-05-11T03:23:43;100555.41;;;11.48;100.00
26087;BME280;13851;43.434;28.338;2023-05-11T03:26:11;100546.66;;;11.52;100.00
26087;BME280;13851;43.434;28.338;2023-05-11T03:28:37;100545.63;;;11.53;100.00
26087;BME280;13851;43.434;28.338;2023-05-11T03:31:07;100518.03;;;11.38;100.00
26087;BME280;13851;43.434;28.338;2023-05-11T03:33:33;100563.47;;;11.74;100.00
26087;BME280;13851;43.434;28.338;2023-05-11T03:36:02;100528.28;;;11.61;100.00
26087;BME280;13851;43.434;28.338;2023-05-11T03:38:29;100530.72;;;11.72;100.00
26087;BME280;13851;43.434;28.338;2023-05-11T03:40:59;100557.97;;;11.90;100.00
26087;BME280;13851;43.434;28.338;2023-05-11T03:43:27;100191.53;;;9.86;100.00
26087;BME280;13851;43.434;28.338;2023-05-11T03:45:55;100555.25;;;11.98;100.00
26087;BME280;13851;43.434;28.338;2023-05-11T03:48:22;100454.38;;;11.59;100.00
26087;BME280;13851;43.434;28.338;2023-05-11T03:50:50;100566.81;;;12.33;100.00
26087;BME280;13851;43.434;28.338;2023-05-11T03:53:16;100485.22;;;11.86;100.00
26087;BME280;13851;43.434;28.338;2023-05-11T03:55:47;100484.38;;;11.93;100.00
26087;BME280;13851;43.434;28.338;2023-05-11T03:58:14;100493.28;;;12.04;100.00
26087;BME280;13851;43.434;28.338;2023-05-11T04:00:41;100578.25;;;12.53;100.00
26087;BME280;13851;43.434;28.338;2023-05-11T04:03:07;100589.22;;;12.61;100.00
26087;BME280;13851;43.434;28.338;2023-05-11T04:05:33;100554.22;;;12.55;100.00
26087;BME280;13851;43.434;28.338;2023-05-11T04:08:00;100569.28;;;12.67;100.00
26087;BME280;13851;43.434;28.338;2023-05-11T04:10:29;100591.19;;;12.83;100.00
26087;BME280;13851;43.434;28.338;2023-05-11T04:12:54;100570.03;;;12.84;100.00
26087;BME280;13851;43.434;28.338;2023-05-11T04:15:22;100493.13;;;12.44;100.00
26087;BME280;13851;43.434;28.338;2023-05-11T04:17:47;100558.56;;;12.80;100.00
26087;BME280;13851;43.434;28.338;2023-05-11T04:20:13;100482.47;;;12.41;100.00
26087;BME280;13851;43.434;28.338;2023-05-11T04:22:39;100541.91;;;12.73;100.00
26087;BME280;13851;43.434;28.338;2023-05-11T04:25:04;100568.53;;;12.73;100.00
26087;BME280;13851;43.434;28.338;2023-05-11T04:27:35;100623.97;;;12.93;100.00
26087;BME280;13851;43.434;28.338;2023-05-11T04:30:01;100553.75;;;12.74;100.00
26087;BME280;13851;43.434;28.338;2023-05-11T04:32:29;100584.97;;;12.89;100.00
26087;BME280;13851;43.434;28.338;2023-05-11T04:34:55;100516.41;;;12.57;100.00
26087;BME280;13851;43.434;28.338;2023-05-11T04:37:20;100271.91;;;11.16;100.00
26087;BME280;13851;43.434;28.338;2023-05-11T04:39:48;100600.84;;;13.10;100.00
26087;BME280;13851;43.434;28.338;2023-05-11T04:42:13;100222.78;;;10.90;100.00
26087;BME280;13851;43.434;28.338;2023-05-11T04:44:39;100565.25;;;13.09;100.00
26087;BME280;13851;43.434;28.338;2023-05-11T04:47:05;100655.00;;;13.49;100.00
26087;BME280;13851;43.434;28.338;2023-05-11T04:49:30;100591.16;;;13.53;100.00
26087;BME280;13851;43.434;28.338;2023-05-11T04:51:56;100603.31;;;13.82;100.00
26087;BME280;13851;43.434;28.338;2023-05-11T04:54:21;100606.59;;;14.00;100.00
26087;BME280;13851;43.434;28.338;2023-05-11T04:56:47;100608.72;;;14.13;100.00
26087;BME280;13851;43.434;28.338;2023-05-11T04:59:12;100235.06;;;12.12;100.00
26087;BME280;13851;43.434;28.338;2023-05-11T05:01:38;100256.59;;;12.23;100.00
26087;BME280;13851;43.434;28.338;2023-05-11T05:04:03;100612.16;;;14.30;100.00
26087;BME280;13851;43.434;28.338;2023-05-11T05:06:31;100573.91;;;14.12;100.00
26087;BME280;13851;43.434;28.338;2023-05-11T05:08:57;100282.53;;;12.43;100.00
26087;BME280;13851;43.434;28.338;2023-05-11T05:11:22;100612.75;;;14.40;100.00
26087;BME280;13851;43.434;28.338;2023-05-11T05:13:48;100317.34;;;12.74;100.00
26087;BME280;13851;43.434;28.338;2023-05-11T05:16:16;100542.19;;;14.31;100.00
26087;BME280;13851;43.434;28.338;2023-05-11T05:18:42;100604.03;;;14.51;100.00
26087;BME280;13851;43.434;28.338;2023-05-11T05:21:10;100623.75;;;14.40;100.00
26087;BME280;13851;43.434;28.338;2023-05-11T05:23:35;100632.22;;;14.39;100.00
26087;BME280;13851;43.434;28.338;2023-05-11T05:26:03;100327.72;;;12.64;100.00
26087;BME280;13851;43.434;28.338;2023-05-11T05:28:29;100578.72;;;14.33;100.00
26087;BME280;13851;43.434;28.338;2023-05-11T05:30:54;100607.44;;;14.53;100.00
26087;BME280;13851;43.434;28.338;2023-05-11T05:33:20;100577.09;;;14.39;100.00
26087;BME280;13851;43.434;28.338;2023-05-11T05:35:45;100655.41;;;14.29;100.00
26087;BME280;13851;43.434;28.338;2023-05-11T05:38:11;100556.84;;;13.41;100.00
26087;BME280;13851;43.434;28.338;2023-05-11T05:40:37;100604.28;;;13.43;100.00
26087;BME280;13851;43.434;28.338;2023-05-11T05:43:05;100640.88;;;13.75;100.00
26087;BME280;13851;43.434;28.338;2023-05-11T05:45:30;100536.56;;;13.34;100.00
26087;BME280;13851;43.434;28.338;2023-05-11T05:47:56;100637.69;;;14.09;100.00
26087;BME280;13851;43.434;28.338;2023-05-11T05:50:24;100636.16;;;14.21;100.00
26087;BME280;13851;43.434;28.338;2023-05-11T05:52:50;100577.63;;;13.67;100.00
26087;BME280;13851;43.434;28.338;2023-05-11T05:55:16;100649.31;;;13.96;100.00
26087;BME280;13851;43.434;28.338;2023-05-11T05:57:41;100648.09;;;13.99;100.00
26087;BME280;13851;43.434;28.338;2023-05-11T06:00:07;100317.97;;;11.84;100.00
26087;BME280;13851;43.434;28.338;2023-05-11T06:02:33;100307.25;;;11.58;100.00
26087;BME280;13851;43.434;28.338;2023-05-11T06:04:59;100653.28;;;13.71;100.00
26087;BME280;13851;43.434;28.338;2023-05-11T06:07:25;100634.25;;;13.61;100.00
26087;BME280;13851;43.434;28.338;2023-05-11T06:09:51;100598.03;;;13.49;100.00
26087;BME280;13851;43.434;28.338;2023-05-11T06:12:16;100685.31;;;13.72;100.00
26087;BME280;13851;43.434;28.338;2023-05-11T06:14:42;100649.06;;;13.37;100.00
26087;BME280;13851;43.434;28.338;2023-05-11T06:17:07;100353.22;;;12.04;100.00
26087;BME280;13851;43.434;28.338;2023-05-11T06:19:33;100646.50;;;14.04;100.00
26087;BME280;13851;43.434;28.338;2023-05-11T06:22:01;100553.78;;;13.36;100.00
26087;BME280;13851;43.434;28.338;2023-05-11T06:24:26;100637.47;;;13.73;100.00
26087;BME280;13851;43.434;28.338;2023-05-11T06:26:52;100579.25;;;13.30;100.00
26087;BME280;13851;43.434;28.338;2023-05-11T06:29:17;100477.16;;;12.71;100.00
26087;BME280;13851;43.434;28.338;2023-05-11T06:31:46;100404.94;;;12.77;100.00
26087;BME280;13851;43.434;28.338;2023-05-11T06:34:19;100653.88;;;14.42;100.00
26087;BME280;13851;43.434;28.338;2023-05-11T06:36:47;100432.06;;;13.03;100.00
26087;BME280;13851;43.434;28.338;2023-05-11T06:39:13;100652.09;;;14.34;100.00
26087;BME280;13851;43.434;28.338;2023-05-11T06:41:39;100647.03;;;14.23;100.00
26087;BME280;13851;43.434;28.338;2023-05-11T06:44:04;100552.16;;;13.65;100.00
26087;BME280;13851;43.434;28.338;2023-05-11T06:46:30;100658.59;;;14.18;100.00
26087;BME280;13851;43.434;28.338;2023-05-11T06:48:55;100476.16;;;13.18;100.00
26087;BME280;13851;43.434;28.338;2023-05-11T06:51:21;100691.41;;;14.51;100.00
26087;BME280;13851;43.434;28.338;2023-05-11T06:53:47;100628.63;;;14.53;100.00
26087;BME280;13851;43.434;28.338;2023-05-11T06:56:12;100351.75;;;13.08;100.00
26087;BME280;13851;43.434;28.338;2023-05-11T06:58:38;100586.88;;;14.41;100.00
26087;BME280;13851;43.434;28.338;2023-05-11T07:01:04;100397.28;;;13.33;100.00
26087;BME280;13851;43.434;28.338;2023-05-11T07:03:32;100679.63;;;14.87;100.00
26087;BME280;13851;43.434;28.338;2023-05-11T07:05:58;100614.84;;;14.82;100.00
26087;BME280;13851;43.434;28.338;2023-05-11T07:08:23;100595.84;;;14.73;100.00
26087;BME280;13851;43.434;28.338;2023-05-11T07:10:55;100649.00;;;14.96;100.00
26087;BME280;13851;43.434;28.338;2023-05-11T07:13:21;100585.56;;;14.67;100.00
26087;BME280;13851;43.434;28.338;2023-05-11T07:15:46;100653.56;;;15.04;100.00
26087;BME280;13851;43.434;28.338;2023-05-11T07:18:13;100403.41;;;13.58;100.00
26087;BME280;13851;43.434;28.338;2023-05-11T07:20:40;100696.97;;;15.10;100.00
26087;BME280;13851;43.434;28.338;2023-05-11T07:23:05;100640.25;;;14.78;100.00
26087;BME280;13851;43.434;28.338;2023-05-11T07:25:31;100658.63;;;15.00;100.00
26087;BME280;13851;43.434;28.338;2023-05-11T07:27:57;100635.50;;;14.87;100.00
26087;BME280;13851;43.434;28.338;2023-05-11T07:30:22;100686.50;;;14.91;100.00
26087;BME280;13851;43.434;28.338;2023-05-11T07:32:48;100668.66;;;15.23;100.00
26087;BME280;13851;43.434;28.338;2023-05-11T07:35:14;100506.44;;;14.38;100.00
26087;BME280;13851;43.434;28.338;2023-05-11T07:37:40;100461.63;;;14.14;100.00
26087;BME280;13851;43.434;28.338;2023-05-11T07:40:08;100653.81;;;15.24;100.00
26087;BME280;13851;43.434;28.338;2023-05-11T07:42:34;100670.50;;;15.67;100.00
26087;BME280;13851;43.434;28.338;2023-05-11T07:44:59;100601.13;;;15.40;100.00
26087;BME280;13851;43.434;28.338;2023-05-11T07:47:25;100596.75;;;15.46;100.00
26087;BME280;13851;43.434;28.338;2023-05-11T07:49:51;100635.56;;;15.80;100.00
26087;BME280;13851;43.434;28.338;2023-05-11T07:52:19;100680.38;;;16.19;100.00
26087;BME280;13851;43.434;28.338;2023-05-11T07:54:44;100665.91;;;15.95;100.00
26087;BME280;13851;43.434;28.338;2023-05-11T07:57:10;100454.06;;;14.38;100.00
26087;BME280;13851;43.434;28.338;2023-05-11T07:59:36;100678.97;;;15.50;100.00
26087;BME280;13851;43.434;28.338;2023-05-11T08:02:05;100579.50;;;15.22;100.00
26087;BME280;13851;43.434;28.338;2023-05-11T08:04:32;100673.94;;;15.90;100.00
26087;BME280;13851;43.434;28.338;2023-05-11T08:06:57;100676.44;;;16.28;100.00
26087;BME280;13851;43.434;28.338;2023-05-11T08:09:23;100684.19;;;15.96;100.00
26087;BME280;13851;43.434;28.338;2023-05-11T08:11:48;100651.78;;;15.47;100.00
26087;BME280;13851;43.434;28.338;2023-05-11T08:14:14;100321.84;;;13.72;100.00
26087;BME280;13851;43.434;28.338;2023-05-11T08:16:40;100672.63;;;16.07;100.00
26087;BME280;13851;43.434;28.338;2023-05-11T08:19:05;100327.00;;;14.11;100.00
26087;BME280;13851;43.434;28.338;2023-05-11T08:21:31;100699.22;;;16.08;100.00
26087;BME280;13851;43.434;28.338;2023-05-11T08:23:57;100664.84;;;15.96;100.00
26087;BME280;13851;43.434;28.338;2023-05-11T08:26:22;100664.19;;;15.73;100.00
26087;BME280;13851;43.434;28.338;2023-05-11T08:28:48;100452.31;;;14.30;100.00
26087;BME280;13851;43.434;28.338;2023-05-11T08:31:13;100652.81;;;15.46;100.00
26087;BME280;13851;43.434;28.338;2023-05-11T08:33:39;100687.88;;;15.82;100.00
26087;BME280;13851;43.434;28.338;2023-05-11T08:36:05;100635.41;;;15.82;100.00
26087;BME280;13851;43.434;28.338;2023-05-11T08:38:31;100690.59;;;16.46;100.00
26087;BME280;13851;43.434;28.338;2023-05-11T08:40:57;100687.50;;;16.56;100.00
26087;BME280;13851;43.434;28.338;2023-05-11T08:43:24;100653.78;;;15.96;100.00
26087;BME280;13851;43.434;28.338;2023-05-11T08:45:53;100680.72;;;16.09;100.00
26087;BME280;13851;43.434;28.338;2023-05-11T08:48:21;100674.38;;;16.15;100.00
26087;BME280;13851;43.434;28.338;2023-05-11T08:50:48;100436.56;;;14.75;100.00
26087;BME280;13851;43.434;28.338;2023-05-11T08:53:13;100671.94;;;16.05;100.00
26087;BME280;13851;43.434;28.338;2023-05-11T08:55:39;100394.97;;;14.40;100.00
26087;BME280;13851;43.434;28.338;2023-05-11T08:58:07;100679.97;;;16.22;100.00
26087;BME280;13851;43.434;28.338;2023-05-11T09:00:33;100678.06;;;16.01;100.00
26087;BME280;13851;43.434;28.338;2023-05-11T09:02:59;100659.47;;;15.67;100.00
26087;BME280;13851;43.434;28.338;2023-05-11T09:05:25;100297.56;;;13.31;100.00
26087;BME280;13851;43.434;28.338;2023-05-11T09:07:54;100622.94;;;15.35;100.00
26087;BME280;13851;43.434;28.338;2023-05-11T09:10:21;100662.75;;;15.41;100.00
26087;BME280;13851;43.434;28.338;2023-05-11T09:12:46;100663.72;;;15.03;100.00
26087;BME280;13851;43.434;28.338;2023-05-11T09:15:12;100664.78;;;15.17;100.00
26087;BME280;13851;43.434;28.338;2023-05-11T09:17:38;100649.06;;;15.18;100.00
26087;BME280;13851;43.434;28.338;2023-05-11T09:20:05;100683.31;;;15.38;100.00
26087;BME280;13851;43.434;28.338;2023-05-11T09:22:32;100599.38;;;15.18;100.00
26087;BME280;13851;43.434;28.338;2023-05-11T09:25:00;100653.25;;;15.65;100.00
26087;BME280;13851;43.434;28.338;2023-05-11T09:27:26;100654.91;;;15.44;100.00
26087;BME280;13851;43.434;28.338;2023-05-11T09:29:54;100611.56;;;15.23;100.00
26087;BME280;13851;43.434;28.338;2023-05-11T09:32:20;100586.91;;;15.22;100.00
26087;BME280;13851;43.434;28.338;2023-05-11T09:34:46;100532.88;;;15.34;100.00
26087;BME280;13851;43.434;28.338;2023-05-11T09:37:18;100447.38;;;15.19;100.00
26087;BME280;13851;43.434;28.338;2023-05-11T09:39:43;100325.22;;;14.82;100.00
26087;BME280;13851;43.434;28.338;2023-05-11T09:42:16;100643.03;;;16.85;100.00
26087;BME280;13851;43.434;28.338;2023-05-11T09:44:43;100627.09;;;16.59;100.00
26087;BME280;13851;43.434;28.338;2023-05-11T09:47:10;100483.78;;;15.72;100.00
26087;BME280;13851;43.434;28.338;2023-05-11T09:49:38;100675.06;;;16.45;100.00
26087;BME280;13851;43.434;28.338;2023-05-11T09:52:04;100627.53;;;16.63;100.00
26087;BME280;13851;43.434;28.338;2023-05-11T09:54:30;100627.59;;;16.70;100.00
26087;BME280;13851;43.434;28.338;2023-05-11T09:57:06;100591.72;;;16.48;100.00
26087;BME280;13851;43.434;28.338;2023-05-11T09:59:37;100626.53;;;16.71;100.00
26087;BME280;13851;43.434;28.338;2023-05-11T10:02:30;100612.81;;;16.84;100.00
26087;BME280;13851;43.434;28.338;2023-05-11T10:04:59;100621.22;;;17.10;100.00
26087;BME280;13851;43.434;28.338;2023-05-11T10:10:05;100330.56;;;15.68;100.00
26087;BME280;13851;43.434;28.338;2023-05-11T10:12:31;100642.50;;;17.64;100.00
26087;BME280;13851;43.434;28.338;2023-05-11T10:15:05;100574.19;;;17.24;100.00
26087;BME280;13851;43.434;28.338;2023-05-11T10:17:32;100615.34;;;17.40;100.00
26087;BME280;13851;43.434;28.338;2023-05-11T10:19:59;100437.28;;;16.10;100.00
26087;BME280;13851;43.434;28.338;2023-05-11T10:22:25;100545.97;;;16.87;100.00
26087;BME280;13851;43.434;28.338;2023-05-11T10:24:52;100633.09;;;17.59;100.00
26087;BME280;13851;43.434;28.338;2023-05-11T10:27:19;100599.72;;;17.74;100.00
26087;BME280;13851;43.434;28.338;2023-05-11T10:29:48;100624.38;;;17.62;100.00
26087;BME280;13851;43.434;28.338;2023-05-11T10:32:16;100632.34;;;17.78;100.00
26087;BME280;13851;43.434;28.338;2023-05-11T10:34:44;100320.13;;;16.11;100.00
26087;BME280;13851;43.434;28.338;2023-05-11T10:37:11;100584.09;;;17.59;100.00
26087;BME280;13851;43.434;28.338;2023-05-11T10:39:38;100409.22;;;16.68;100.00
26087;BME280;13851;43.434;28.338;2023-05-11T10:42:32;100636.19;;;17.90;99.60
26087;BME280;13851;43.434;28.338;2023-05-11T10:45:17;100399.56;;;16.44;100.00
26087;BME280;13851;43.434;28.338;2023-05-11T11:02:01;100255.56;;;14.74;100.00
26087;BME280;13851;43.434;28.338;2023-05-11T11:04:49;100631.25;;;17.11;100.00
26087;BME280;13851;43.434;28.338;2023-05-11T11:07:15;100600.09;;;16.68;100.00
26087;BME280;13851;43.434;28.338;2023-05-11T11:09:58;99428.06;;;9.65;100.00
26087;BME280;13851;43.434;28.338;2023-05-11T11:12:33;100631.88;;;16.44;100.00
26087;BME280;13851;43.434;28.338;2023-05-11T11:15:05;100613.47;;;16.30;100.00
26087;BME280;13851;43.434;28.338;2023-05-11T11:17:34;100533.53;;;16.35;100.00
26087;BME280;13851;43.434;28.338;2023-05-11T11:20:04;100626.63;;;17.25;100.00
26087;BME280;13851;43.434;28.338;2023-05-11T11:25:09;100590.41;;;17.27;100.00
26087;BME280;13851;43.434;28.338;2023-05-11T11:32:52;100637.47;;;17.27;100.00
26087;BME280;13851;43.434;28.338;2023-05-11T11:38:02;100616.25;;;16.99;100.00
26087;BME280;13851;43.434;28.338;2023-05-11T11:40:54;100633.69;;;16.93;100.00
26087;BME280;13851;43.434;28.338;2023-05-11T11:43:22;100637.41;;;16.72;100.00
26087;BME280;13851;43.434;28.338;2023-05-11T11:48:21;100634.78;;;16.36;100.00
26087;BME280;13851;43.434;28.338;2023-05-11T11:50:47;100622.59;;;16.24;100.00
26087;BME280;13851;43.434;28.338;2023-05-11T12:01:06;100617.47;;;15.56;100.00
26087;BME280;13851;43.434;28.338;2023-05-11T12:03:35;100580.03;;;15.32;100.00
26087;BME280;13851;43.434;28.338;2023-05-11T12:06:06;100598.59;;;15.24;100.00
26087;BME280;13851;43.434;28.338;2023-05-11T12:08:36;100633.00;;;15.79;100.00
26087;BME280;13851;43.434;28.338;2023-05-11T12:11:04;100591.63;;;15.85;100.00
26087;BME280;13851;43.434;28.338;2023-05-11T12:13:31;100582.56;;;15.70;100.00
26087;BME280;13851;43.434;28.338;2023-05-11T12:16:14;100613.97;;;16.12;100.00
26087;BME280;13851;43.434;28.338;2023-05-11T12:18:42;100606.19;;;16.50;100.00
26087;BME280;13851;43.434;28.338;2023-05-11T12:21:26;100602.22;;;16.94;100.00
26087;BME280;13851;43.434;28.338;2023-05-11T12:23:56;100608.47;;;16.47;100.00
26087;BME280;13851;43.434;28.338;2023-05-11T12:26:23;100624.91;;;16.48;100.00
26087;BME280;13851;43.434;28.338;2023-05-11T12:29:09;100608.78;;;16.58;100.00
26087;BME280;13851;43.434;28.338;2023-05-11T12:31:41;100547.09;;;16.23;100.00
26087;BME280;13851;43.434;28.338;2023-05-11T12:34:13;100297.72;;;15.17;100.00
26087;BME280;13851;43.434;28.338;2023-05-11T12:36:45;100627.19;;;17.14;100.00
26087;BME280;13851;43.434;28.338;2023-05-11T12:39:25;100610.84;;;17.26;100.00
26087;BME280;13851;43.434;28.338;2023-05-11T12:41:54;100607.31;;;17.52;100.00
26087;BME280;13851;43.434;28.338;2023-05-11T12:44:21;100603.25;;;17.54;100.00
26087;BME280;13851;43.434;28.338;2023-05-11T12:46:48;100586.59;;;16.80;100.00
26087;BME280;13851;43.434;28.338;2023-05-11T12:49:18;100628.25;;;17.06;100.00
26087;BME280;13851;43.434;28.338;2023-05-11T12:51:49;100273.66;;;14.83;100.00
26087;BME280;13851;43.434;28.338;2023-05-11T12:56:54;100562.66;;;16.31;100.00
26087;BME280;13851;43.434;28.338;2023-05-11T12:59:42;100582.84;;;16.59;100.00
26087;BME280;13851;43.434;28.338;2023-05-11T13:02:18;100593.44;;;16.84;100.00
26087;BME280;13851;43.434;28.338;2023-05-11T13:04:46;100356.50;;;15.74;100.00
26087;BME280;13851;43.434;28.338;2023-05-11T13:07:13;100567.63;;;16.77;100.00
26087;BME280;13851;43.434;28.338;2023-05-11T13:09:41;100608.84;;;17.06;100.00
26087;BME280;13851;43.434;28.338;2023-05-11T13:12:16;100575.91;;;16.42;100.00
26087;BME280;13851;43.434;28.338;2023-05-11T13:14:47;100572.09;;;16.43;100.00
26087;BME280;13851;43.434;28.338;2023-05-11T13:17:22;100547.69;;;16.19;100.00
26087;BME280;13851;43.434;28.338;2023-05-11T13:19:52;100566.22;;;16.25;100.00
26087;BME280;13851;43.434;28.338;2023-05-11T13:22:18;100287.06;;;14.86;100.00
26087;BME280;13851;43.434;28.338;2023-05-11T13:24:43;100519.34;;;16.10;100.00
26087;BME280;13851;43.434;28.338;2023-05-11T13:27:09;100584.22;;;16.77;100.00